sensor_id;sensor_type;location;lat;lon;timestamp;temperature;humidity
16263;DHT22;8239;48.594;8.598;2023-12-29T00:02:10;6.80;99.90
16263;DHT22;8239;48.594;8.598;2023-12-29T00:04:38;6.90;99.90
16263;DHT22;8239;48.594;8.598;2023-12-29T00:07:05;6.90;99.90
16263;DHT22;8239;48.594;8.598;2023-12-29T00:09:32;6.90;99.90
16263;DHT22;8239;48.594;8.598;2023-12-29T00:12:04;6.80;99.90
16263;DHT22;8239;48.594;8.598;2023-12-29T00:14:33;6.90;99.90
16263;DHT22;8239;48.594;8.598;2023-12-29T00:17:00;6.80;99.90
16263;DHT22;8239;48.594;8.598;2023-12-29T00:19:27;6.90;99.90
16263;DHT22;8239;48.594;8.598;2023-12-29T00:21:54;6.80;99.90
16263;DHT22;8239;48.594;8.598;2023-12-29T00:24:21;6.80;99.90
16263;DHT22;8239;48.594;8.598;2023-12-29T00:26:49;6.80;99.90
16263;DHT22;8239;48.594;8.598;2023-12-29T00:29:16;6.80;99.90
16263;DHT22;8239;48.594;8.598;2023-12-29T00:31:44;6.80;99.90
16263;DHT22;8239;48.594;8.598;2023-12-29T00:34:11;6.90;99.90
16263;DHT22;8239;48.594;8.598;2023-12-29T00:36:38;6.80;99.90
16263;DHT22;8239;48.594;8.598;2023-12-29T00:39:05;6.80;99.90
16263;DHT22;8239;48.594;8.598;2023-12-29T00:41:32;6.80;99.90
16263;DHT22;8239;48.594;8.598;2023-12-29T00:44:00;6.80;99.90
16263;DHT22;8239;48.594;8.598;2023-12-29T00:46:27;6.80;99.90
16263;DHT22;8239;48.594;8.598;2023-12-29T00:48:55;6.80;99.90
16263;DHT22;8239;48.594;8.598;2023-12-29T00:51:22;6.80;99.90
16263;DHT22;8239;48.594;8.598;2023-12-29T00:53:49;6.80;99.90
16263;DHT22;8239;48.594;8.598;2023-12-29T00:56:16;6.70;99.90
16263;DHT22;8239;48.594;8.598;2023-12-29T00:58:43;6.70;99.90
16263;DHT22;8239;48.594;8.598;2023-12-29T01:01:10;6.70;99.90
16263;DHT22;8239;48.594;8.598;2023-12-29T01:03:37;6.70;99.90
16263;DHT22;8239;48.594;8.598;2023-12-29T01:06:05;6.70;99.90
16263;DHT22;8239;48.594;8.598;2023-12-29T01:08:32;6.60;99.90
16263;DHT22;8239;48.594;8.598;2023-12-29T01:11:00;6.60;99.90
16263;DHT22;8239;48.594;8.598;2023-12-29T01:13:27;6.70;99.90
16263;DHT22;8239;48.594;8.598;2023-12-29T01:15:54;6.60;99.90
16263;DHT22;8239;48.594;8.598;2023-12-29T01:18:20;6.60;99.90
16263;DHT22;8239;48.594;8.598;2023-12-29T01:20:48;6.60;99.90
16263;DHT22;8239;48.594;8.598;2023-12-29T01:23:17;6.60;99.90
16263;DHT22;8239;48.594;8.598;2023-12-29T01:25:44;6.60;99.90
16263;DHT22;8239;48.594;8.598;2023-12-29T01:28:11;6.60;99.90
16263;DHT22;8239;48.594;8.598;2023-12-29T01:30:38;6.50;99.90
16263;DHT22;8239;48.594;8.598;2023-12-29T01:33:05;6.50;99.90
16263;DHT22;8239;48.594;8.598;2023-12-29T01:35:32;6.50;99.90
16263;DHT22;8239;48.594;8.598;2023-12-29T01:37:59;6.40;99.90
16263;DHT22;8239;48.594;8.598;2023-12-29T01:40:28;6.50;99.90
16263;DHT22;8239;48.594;8.598;2023-12-29T01:42:55;6.40;99.90
16263;DHT22;8239;48.594;8.598;2023-12-29T01:45:23;6.40;99.90
16263;DHT22;8239;48.594;8.598;2023-12-29T01:47:52;6.50;99.90
16263;DHT22;8239;48.594;8.598;2023-12-29T01:50:21;6.50;99.90
16263;DHT22;8239;48.594;8.598;2023-12-29T01:52:50;6.50;99.90
16263;DHT22;8239;48.594;8.598;2023-12-29T01:55:20;6.50;99.90
16263;DHT22;8239;48.594;8.598;2023-12-29T01:57:50;6.50;99.90
16263;DHT22;8239;48.594;8.598;2023-12-29T02:00:18;6.50;99.90
16263;DHT22;8239;48.594;8.598;2023-12-29T02:02:46;6.50;99.90
16263;DHT22;8239;48.594;8.598;2023-12-29T02:05:14;6.50;99.90
16263;DHT22;8239;48.594;8.598;2023-12-29T02:07:41;6.60;99.90
16263;DHT22;8239;48.594;8.598;2023-12-29T02:10:09;6.60;99.90
16263;DHT22;8239;48.594;8.598;2023-12-29T02:12:39;6.60;99.90
16263;DHT22;8239;48.594;8.598;2023-12-29T02:15:08;6.60;99.90
16263;DHT22;8239;48.594;8.598;2023-12-29T02:17:39;6.60;99.90
16263;DHT22;8239;48.594;8.598;2023-12-29T02:20:08;6.50;99.90
16263;DHT22;8239;48.594;8.598;2023-12-29T02:22:36;6.50;99.90
16263;DHT22;8239;48.594;8.598;2023-12-29T02:25:05;6.60;99.90
16263;DHT22;8239;48.594;8.598;2023-12-29T02:27:41;6.60;99.90
16263;DHT22;8239;48.594;8.598;2023-12-29T02:30:12;6.60;99.90
16263;DHT22;8239;48.594;8.598;2023-12-29T02:32:43;6.60;99.90
16263;DHT22;8239;48.594;8.598;2023-12-29T02:35:14;6.60;99.90
16263;DHT22;8239;48.594;8.598;2023-12-29T02:37:41;6.60;99.90
16263;DHT22;8239;48.594;8.598;2023-12-29T02:40:11;6.60;99.90
16263;DHT22;8239;48.594;8.598;2023-12-29T02:42:38;6.60;99.90
16263;DHT22;8239;48.594;8.598;2023-12-29T02:45:06;6.50;99.90
16263;DHT22;8239;48.594;8.598;2023-12-29T02:47:33;6.50;99.90
16263;DHT22;8239;48.594;8.598;2023-12-29T02:49:59;6.50;99.90
16263;DHT22;8239;48.594;8.598;2023-12-29T02:52:26;6.50;99.90
16263;DHT22;8239;48.594;8.598;2023-12-29T02:54:54;6.50;99.90
16263;DHT22;8239;48.594;8.598;2023-12-29T02:57:22;6.50;99.90
16263;DHT22;8239;48.594;8.598;2023-12-29T02:59:49;6.50;99.90
16263;DHT22;8239;48.594;8.598;2023-12-29T03:02:17;6.40;99.90
16263;DHT22;8239;48.594;8.598;2023-12-29T03:04:44;6.50;99.90
16263;DHT22;8239;48.594;8.598;2023-12-29T03:07:11;6.50;99.90
16263;DHT22;8239;48.594;8.598;2023-12-29T03:09:39;6.50;99.90
16263;DHT22;8239;48.594;8.598;2023-12-29T03:12:06;6.50;99.90
16263;DHT22;8239;48.594;8.598;2023-12-29T03:14:34;6.40;99.90
16263;DHT22;8239;48.594;8.598;2023-12-29T03:17:02;6.40;99.90
16263;DHT22;8239;48.594;8.598;2023-12-29T03:19:28;6.40;99.90
16263;DHT22;8239;48.594;8.598;2023-12-29T03:21:56;6.50;99.90
16263;DHT22;8239;48.594;8.598;2023-12-29T03:24:23;6.40;99.90
16263;DHT22;8239;48.594;8.598;2023-12-29T03:26:49;6.40;99.90
16263;DHT22;8239;48.594;8.598;2023-12-29T03:29:16;6.40;99.90
16263;DHT22;8239;48.594;8.598;2023-12-29T03:31:45;6.40;99.90
16263;DHT22;8239;48.594;8.598;2023-12-29T03:34:12;6.40;99.90
16263;DHT22;8239;48.594;8.598;2023-12-29T03:36:38;6.40;99.90
16263;DHT22;8239;48.594;8.598;2023-12-29T03:39:05;6.40;99.90
16263;DHT22;8239;48.594;8.598;2023-12-29T03:41:32;6.40;99.90
16263;DHT22;8239;48.594;8.598;2023-12-29T03:43:59;6.40;99.90
16263;DHT22;8239;48.594;8.598;2023-12-29T03:46:26;6.40;99.90
16263;DHT22;8239;48.594;8.598;2023-12-29T03:48:54;6.40;99.90
16263;DHT22;8239;48.594;8.598;2023-12-29T03:51:22;6.40;99.90
16263;DHT22;8239;48.594;8.598;2023-12-29T03:53:48;6.40;99.90
16263;DHT22;8239;48.594;8.598;2023-12-29T03:56:17;6.40;99.90
16263;DHT22;8239;48.594;8.598;2023-12-29T03:58:44;6.40;99.90
16263;DHT22;8239;48.594;8.598;2023-12-29T04:01:11;6.40;99.90
16263;DHT22;8239;48.594;8.598;2023-12-29T04:03:39;6.40;99.90
16263;DHT22;8239;48.594;8.598;2023-12-29T04:06:08;6.40;99.90
16263;DHT22;8239;48.594;8.598;2023-12-29T04:08:37;6.40;99.90
16263;DHT22;8239;48.594;8.598;2023-12-29T04:11:04;6.40;99.90
16263;DHT22;8239;48.594;8.598;2023-12-29T04:13:32;6.40;99.90
16263;DHT22;8239;48.594;8.598;2023-12-29T04:15:59;6.40;99.90
16263;DHT22;8239;48.594;8.598;2023-12-29T04:18:26;6.40;99.90
16263;DHT22;8239;48.594;8.598;2023-12-29T04:20:54;6.40;99.90
16263;DHT22;8239;48.594;8.598;2023-12-29T04:23:22;6.40;99.90
16263;DHT22;8239;48.594;8.598;2023-12-29T04:25:49;6.50;99.90
16263;DHT22;8239;48.594;8.598;2023-12-29T04:28:16;6.40;99.90
16263;DHT22;8239;48.594;8.598;2023-12-29T04:30:43;6.50;99.90
16263;DHT22;8239;48.594;8.598;2023-12-29T04:33:10;6.50;99.90
16263;DHT22;8239;48.594;8.598;2023-12-29T04:35:37;6.40;99.90
16263;DHT22;8239;48.594;8.598;2023-12-29T04:38:04;6.50;99.90
16263;DHT22;8239;48.594;8.598;2023-12-29T04:40:33;6.40;99.90
16263;DHT22;8239;48.594;8.598;2023-12-29T04:43:00;6.40;99.90
16263;DHT22;8239;48.594;8.598;2023-12-29T04:45:27;6.50;99.90
16263;DHT22;8239;48.594;8.598;2023-12-29T04:47:54;6.40;99.90
16263;DHT22;8239;48.594;8.598;2023-12-29T04:50:21;6.40;99.90
16263;DHT22;8239;48.594;8.598;2023-12-29T04:52:48;6.40;99.90
16263;DHT22;8239;48.594;8.598;2023-12-29T04:55:15;6.40;99.90
16263;DHT22;8239;48.594;8.598;2023-12-29T04:57:46;6.40;99.90
16263;DHT22;8239;48.594;8.598;2023-12-29T05:00:14;6.40;99.90
16263;DHT22;8239;48.594;8.598;2023-12-29T05:02:42;6.40;99.90
16263;DHT22;8239;48.594;8.598;2023-12-29T05:05:09;6.40;99.90
16263;DHT22;8239;48.594;8.598;2023-12-29T05:07:38;6.40;99.90
16263;DHT22;8239;48.594;8.598;2023-12-29T05:10:06;6.50;99.90
16263;DHT22;8239;48.594;8.598;2023-12-29T05:12:33;6.50;99.90
16263;DHT22;8239;48.594;8.598;2023-12-29T05:15:03;6.50;99.90
16263;DHT22;8239;48.594;8.598;2023-12-29T05:17:30;6.50;99.90
16263;DHT22;8239;48.594;8.598;2023-12-29T05:19:57;6.50;99.90
16263;DHT22;8239;48.594;8.598;2023-12-29T05:22:25;6.50;99.90
16263;DHT22;8239;48.594;8.598;2023-12-29T05:24:51;6.50;99.90
16263;DHT22;8239;48.594;8.598;2023-12-29T05:27:23;6.60;99.90
16263;DHT22;8239;48.594;8.598;2023-12-29T05:29:50;6.60;99.90
16263;DHT22;8239;48.594;8.598;2023-12-29T05:32:18;6.60;99.90
16263;DHT22;8239;48.594;8.598;2023-12-29T05:34:46;6.60;99.90
16263;DHT22;8239;48.594;8.598;2023-12-29T05:37:13;6.60;99.90
16263;DHT22;8239;48.594;8.598;2023-12-29T05:39:41;6.70;99.90
16263;DHT22;8239;48.594;8.598;2023-12-29T05:42:09;6.70;99.90
16263;DHT22;8239;48.594;8.598;2023-12-29T05:44:36;6.80;99.90
16263;DHT22;8239;48.594;8.598;2023-12-29T05:47:04;6.80;99.90
16263;DHT22;8239;48.594;8.598;2023-12-29T05:49:32;6.90;99.90
16263;DHT22;8239;48.594;8.598;2023-12-29T05:52:04;6.90;99.90
16263;DHT22;8239;48.594;8.598;2023-12-29T05:54:31;6.90;99.90
16263;DHT22;8239;48.594;8.598;2023-12-29T05:56:58;7.00;99.90
16263;DHT22;8239;48.594;8.598;2023-12-29T05:59:25;7.00;99.90
16263;DHT22;8239;48.594;8.598;2023-12-29T06:01:52;7.00;99.90
16263;DHT22;8239;48.594;8.598;2023-12-29T06:04:19;7.00;99.90
16263;DHT22;8239;48.594;8.598;2023-12-29T06:06:48;7.00;99.90
16263;DHT22;8239;48.594;8.598;2023-12-29T06:09:18;7.00;99.90
16263;DHT22;8239;48.594;8.598;2023-12-29T06:11:46;7.00;99.90
16263;DHT22;8239;48.594;8.598;2023-12-29T06:14:13;7.00;99.90
16263;DHT22;8239;48.594;8.598;2023-12-29T06:16:40;7.00;99.90
16263;DHT22;8239;48.594;8.598;2023-12-29T06:19:08;7.00;99.90
16263;DHT22;8239;48.594;8.598;2023-12-29T06:21:40;7.00;99.90
16263;DHT22;8239;48.594;8.598;2023-12-29T06:24:10;7.00;99.90
16263;DHT22;8239;48.594;8.598;2023-12-29T06:26:37;7.00;99.90
16263;DHT22;8239;48.594;8.598;2023-12-29T06:29:07;7.00;99.90
16263;DHT22;8239;48.594;8.598;2023-12-29T06:31:34;7.00;99.90
16263;DHT22;8239;48.594;8.598;2023-12-29T06:34:01;7.00;99.90
16263;DHT22;8239;48.594;8.598;2023-12-29T06:36:28;7.00;99.90
16263;DHT22;8239;48.594;8.598;2023-12-29T06:38:55;7.00;99.90
16263;DHT22;8239;48.594;8.598;2023-12-29T06:41:24;7.00;99.90
16263;DHT22;8239;48.594;8.598;2023-12-29T06:43:51;6.90;99.90
16263;DHT22;8239;48.594;8.598;2023-12-29T06:46:18;7.00;99.90
16263;DHT22;8239;48.594;8.598;2023-12-29T06:48:45;6.90;99.90
16263;DHT22;8239;48.594;8.598;2023-12-29T06:51:16;6.90;99.90
16263;DHT22;8239;48.594;8.598;2023-12-29T06:53:44;6.90;99.90
16263;DHT22;8239;48.594;8.598;2023-12-29T06:56:13;6.90;99.90
16263;DHT22;8239;48.594;8.598;2023-12-29T06:58:43;6.90;99.90
16263;DHT22;8239;48.594;8.598;2023-12-29T07:01:10;6.90;99.90
16263;DHT22;8239;48.594;8.598;2023-12-29T07:03:37;6.90;99.90
16263;DHT22;8239;48.594;8.598;2023-12-29T07:06:04;6.90;99.90
16263;DHT22;8239;48.594;8.598;2023-12-29T07:08:31;6.90;99.90
16263;DHT22;8239;48.594;8.598;2023-12-29T07:10:58;6.90;99.90
16263;DHT22;8239;48.594;8.598;2023-12-29T07:13:25;6.90;99.90
16263;DHT22;8239;48.594;8.598;2023-12-29T07:15:54;6.90;99.90
16263;DHT22;8239;48.594;8.598;2023-12-29T07:18:21;6.90;99.90
16263;DHT22;8239;48.594;8.598;2023-12-29T07:20:48;6.90;99.90
16263;DHT22;8239;48.594;8.598;2023-12-29T07:23:15;6.90;99.90
16263;DHT22;8239;48.594;8.598;2023-12-29T07:25:42;6.90;99.90
16263;DHT22;8239;48.594;8.598;2023-12-29T07:28:09;6.90;99.90
16263;DHT22;8239;48.594;8.598;2023-12-29T07:30:36;6.90;99.90
16263;DHT22;8239;48.594;8.598;2023-12-29T07:33:04;6.90;99.90
16263;DHT22;8239;48.594;8.598;2023-12-29T07:35:32;6.80;99.90
16263;DHT22;8239;48.594;8.598;2023-12-29T07:37:59;6.80;99.90
16263;DHT22;8239;48.594;8.598;2023-12-29T07:40:26;6.80;99.90
16263;DHT22;8239;48.594;8.598;2023-12-29T07:42:53;6.80;99.90
16263;DHT22;8239;48.594;8.598;2023-12-29T07:45:20;6.80;99.90
16263;DHT22;8239;48.594;8.598;2023-12-29T07:47:48;6.80;99.90
16263;DHT22;8239;48.594;8.598;2023-12-29T07:50:16;6.80;99.90
16263;DHT22;8239;48.594;8.598;2023-12-29T07:52:44;6.80;99.90
16263;DHT22;8239;48.594;8.598;2023-12-29T07:55:11;6.80;99.90
16263;DHT22;8239;48.594;8.598;2023-12-29T07:57:38;6.80;99.90
16263;DHT22;8239;48.594;8.598;2023-12-29T08:00:06;6.80;99.90
16263;DHT22;8239;48.594;8.598;2023-12-29T08:02:34;6.80;99.90
16263;DHT22;8239;48.594;8.598;2023-12-29T08:05:01;6.80;99.90
16263;DHT22;8239;48.594;8.598;2023-12-29T08:07:30;6.80;99.90
16263;DHT22;8239;48.594;8.598;2023-12-29T08:09:57;6.80;99.90
16263;DHT22;8239;48.594;8.598;2023-12-29T08:12:24;6.90;99.90
16263;DHT22;8239;48.594;8.598;2023-12-29T08:14:51;6.90;99.90
16263;DHT22;8239;48.594;8.598;2023-12-29T08:17:18;6.90;99.90
16263;DHT22;8239;48.594;8.598;2023-12-29T08:19:46;6.90;99.90
16263;DHT22;8239;48.594;8.598;2023-12-29T08:22:12;7.00;99.90
16263;DHT22;8239;48.594;8.598;2023-12-29T08:24:42;7.00;99.90
16263;DHT22;8239;48.594;8.598;2023-12-29T08:27:12;7.00;99.90
16263;DHT22;8239;48.594;8.598;2023-12-29T08:29:39;7.00;99.90
16263;DHT22;8239;48.594;8.598;2023-12-29T08:32:08;7.10;99.90
16263;DHT22;8239;48.594;8.598;2023-12-29T08:34:35;7.20;99.90
16263;DHT22;8239;48.594;8.598;2023-12-29T08:37:03;7.10;99.90
16263;DHT22;8239;48.594;8.598;2023-12-29T08:39:31;7.20;99.90
16263;DHT22;8239;48.594;8.598;2023-12-29T08:42:00;7.20;99.90
16263;DHT22;8239;48.594;8.598;2023-12-29T08:44:27;7.20;99.90
16263;DHT22;8239;48.594;8.598;2023-12-29T08:46:54;7.20;99.90
16263;DHT22;8239;48.594;8.598;2023-12-29T08:49:21;7.20;99.90
16263;DHT22;8239;48.594;8.598;2023-12-29T08:51:51;7.20;99.90
16263;DHT22;8239;48.594;8.598;2023-12-29T08:54:18;7.20;99.90
16263;DHT22;8239;48.594;8.598;2023-12-29T08:56:45;7.30;99.90
16263;DHT22;8239;48.594;8.598;2023-12-29T08:59:14;7.30;99.90
16263;DHT22;8239;48.594;8.598;2023-12-29T09:01:41;7.30;99.90
16263;DHT22;8239;48.594;8.598;2023-12-29T09:04:10;7.30;99.90
16263;DHT22;8239;48.594;8.598;2023-12-29T09:06:37;7.20;99.90
16263;DHT22;8239;48.594;8.598;2023-12-29T09:09:04;7.30;99.90
16263;DHT22;8239;48.594;8.598;2023-12-29T09:11:31;7.30;99.90
16263;DHT22;8239;48.594;8.598;2023-12-29T09:13:58;7.30;99.90
16263;DHT22;8239;48.594;8.598;2023-12-29T09:16:27;7.30;99.90
16263;DHT22;8239;48.594;8.598;2023-12-29T09:18:54;7.40;99.90
16263;DHT22;8239;48.594;8.598;2023-12-29T09:21:21;7.40;99.90
16263;DHT22;8239;48.594;8.598;2023-12-29T09:23:48;7.50;99.90
16263;DHT22;8239;48.594;8.598;2023-12-29T09:26:16;7.50;99.90
16263;DHT22;8239;48.594;8.598;2023-12-29T09:28:43;7.60;99.90
16263;DHT22;8239;48.594;8.598;2023-12-29T09:31:10;7.60;99.90
16263;DHT22;8239;48.594;8.598;2023-12-29T09:33:39;7.60;99.90
16263;DHT22;8239;48.594;8.598;2023-12-29T09:36:07;7.70;99.90
16263;DHT22;8239;48.594;8.598;2023-12-29T09:38:34;7.70;99.90
16263;DHT22;8239;48.594;8.598;2023-12-29T09:41:09;7.70;99.90
16263;DHT22;8239;48.594;8.598;2023-12-29T09:43:39;7.80;99.90
16263;DHT22;8239;48.594;8.598;2023-12-29T09:46:10;7.80;99.90
16263;DHT22;8239;48.594;8.598;2023-12-29T09:48:42;7.80;99.90
16263;DHT22;8239;48.594;8.598;2023-12-29T09:51:12;7.80;99.90
16263;DHT22;8239;48.594;8.598;2023-12-29T09:53:40;7.80;99.90
16263;DHT22;8239;48.594;8.598;2023-12-29T09:56:08;7.90;99.90
16263;DHT22;8239;48.594;8.598;2023-12-29T09:58:36;8.00;99.90
16263;DHT22;8239;48.594;8.598;2023-12-29T10:01:04;8.10;99.90
16263;DHT22;8239;48.594;8.598;2023-12-29T10:03:32;8.30;99.90
16263;DHT22;8239;48.594;8.598;2023-12-29T10:06:05;8.50;99.90
16263;DHT22;8239;48.594;8.598;2023-12-29T10:08:34;8.60;99.90
16263;DHT22;8239;48.594;8.598;2023-12-29T10:11:02;9.40;99.90
16263;DHT22;8239;48.594;8.598;2023-12-29T10:13:32;10.50;99.90
16263;DHT22;8239;48.594;8.598;2023-12-29T10:16:08;11.10;99.90
16263;DHT22;8239;48.594;8.598;2023-12-29T10:18:47;11.60;99.90
16263;DHT22;8239;48.594;8.598;2023-12-29T10:21:25;11.50;99.90
16263;DHT22;8239;48.594;8.598;2023-12-29T10:23:58;11.50;99.90
16263;DHT22;8239;48.594;8.598;2023-12-29T10:26:30;11.40;99.90
16263;DHT22;8239;48.594;8.598;2023-12-29T10:28:57;11.10;99.90
16263;DHT22;8239;48.594;8.598;2023-12-29T10:31:26;11.00;99.90
16263;DHT22;8239;48.594;8.598;2023-12-29T10:33:53;11.70;99.90
16263;DHT22;8239;48.594;8.598;2023-12-29T10:36:48;12.50;99.90
16263;DHT22;8239;48.594;8.598;2023-12-29T10:39:15;14.40;99.90
16263;DHT22;8239;48.594;8.598;2023-12-29T10:41:42;16.40;99.90
16263;DHT22;8239;48.594;8.598;2023-12-29T10:44:10;18.20;95.00
16263;DHT22;8239;48.594;8.598;2023-12-29T10:46:37;19.10;81.90
16263;DHT22;8239;48.594;8.598;2023-12-29T10:49:07;19.00;73.00
16263;DHT22;8239;48.594;8.598;2023-12-29T10:51:36;18.40;75.60
16263;DHT22;8239;48.594;8.598;2023-12-29T10:54:05;18.40;76.90
16263;DHT22;8239;48.594;8.598;2023-12-29T10:56:33;18.80;73.90
16263;DHT22;8239;48.594;8.598;2023-12-29T10:59:01;19.30;69.70
16263;DHT22;8239;48.594;8.598;2023-12-29T11:01:29;19.60;67.00
16263;DHT22;8239;48.594;8.598;2023-12-29T11:03:58;19.90;65.50
16263;DHT22;8239;48.594;8.598;2023-12-29T11:06:27;20.40;63.80
16263;DHT22;8239;48.594;8.598;2023-12-29T11:08:54;20.30;61.40
16263;DHT22;8239;48.594;8.598;2023-12-29T11:11:23;20.20;60.70
16263;DHT22;8239;48.594;8.598;2023-12-29T11:13:51;19.70;61.40
16263;DHT22;8239;48.594;8.598;2023-12-29T11:16:20;19.10;63.80
16263;DHT22;8239;48.594;8.598;2023-12-29T11:18:49;18.80;63.90
16263;DHT22;8239;48.594;8.598;2023-12-29T11:21:19;18.60;64.40
16263;DHT22;8239;48.594;8.598;2023-12-29T11:23:48;18.40;64.70
16263;DHT22;8239;48.594;8.598;2023-12-29T11:26:15;17.90;67.90
16263;DHT22;8239;48.594;8.598;2023-12-29T11:28:46;17.80;65.80
16263;DHT22;8239;48.594;8.598;2023-12-29T11:31:14;17.50;65.20
16263;DHT22;8239;48.594;8.598;2023-12-29T11:33:44;16.90;66.20
16263;DHT22;8239;48.594;8.598;2023-12-29T11:36:17;16.80;70.80
16263;DHT22;8239;48.594;8.598;2023-12-29T11:38:54;17.50;68.20
16263;DHT22;8239;48.594;8.598;2023-12-29T11:41:31;18.70;68.90
16263;DHT22;8239;48.594;8.598;2023-12-29T11:44:00;19.90;63.20
16263;DHT22;8239;48.594;8.598;2023-12-29T11:46:34;20.80;59.70
16263;DHT22;8239;48.594;8.598;2023-12-29T11:49:01;21.50;57.80
16263;DHT22;8239;48.594;8.598;2023-12-29T11:51:31;21.90;55.60
16263;DHT22;8239;48.594;8.598;2023-12-29T11:54:00;22.10;55.60
16263;DHT22;8239;48.594;8.598;2023-12-29T11:56:35;22.30;55.90
16263;DHT22;8239;48.594;8.598;2023-12-29T11:59:14;22.50;54.20
16263;DHT22;8239;48.594;8.598;2023-12-29T12:01:42;22.30;53.50
16263;DHT22;8239;48.594;8.598;2023-12-29T12:04:34;22.50;53.40
16263;DHT22;8239;48.594;8.598;2023-12-29T12:07:02;22.80;53.50
16263;DHT22;8239;48.594;8.598;2023-12-29T12:09:29;22.60;53.10
16263;DHT22;8239;48.594;8.598;2023-12-29T12:11:57;22.50;53.50
16263;DHT22;8239;48.594;8.598;2023-12-29T12:14:46;22.20;51.60
16263;DHT22;8239;48.594;8.598;2023-12-29T12:17:27;20.80;52.40
16263;DHT22;8239;48.594;8.598;2023-12-29T12:19:57;20.40;55.20
16263;DHT22;8239;48.594;8.598;2023-12-29T12:22:24;20.60;56.00
16263;DHT22;8239;48.594;8.598;2023-12-29T12:24:56;20.90;53.70
16263;DHT22;8239;48.594;8.598;2023-12-29T12:27:24;21.00;53.50
16263;DHT22;8239;48.594;8.598;2023-12-29T12:29:54;21.00;53.80
16263;DHT22;8239;48.594;8.598;2023-12-29T12:32:25;20.80;53.60
16263;DHT22;8239;48.594;8.598;2023-12-29T12:34:52;20.10;52.90
16263;DHT22;8239;48.594;8.598;2023-12-29T12:37:21;18.60;55.40
16263;DHT22;8239;48.594;8.598;2023-12-29T12:39:49;16.80;57.60
16263;DHT22;8239;48.594;8.598;2023-12-29T12:42:17;15.90;61.30
16263;DHT22;8239;48.594;8.598;2023-12-29T12:44:48;15.80;62.70
16263;DHT22;8239;48.594;8.598;2023-12-29T12:47:26;15.60;63.40
16263;DHT22;8239;48.594;8.598;2023-12-29T12:49:54;15.10;65.00
16263;DHT22;8239;48.594;8.598;2023-12-29T12:52:21;14.40;66.30
16263;DHT22;8239;48.594;8.598;2023-12-29T12:54:49;14.60;67.90
16263;DHT22;8239;48.594;8.598;2023-12-29T12:57:20;14.50;67.00
16263;DHT22;8239;48.594;8.598;2023-12-29T12:59:49;14.60;67.00
16263;DHT22;8239;48.594;8.598;2023-12-29T13:02:18;14.20;66.50
16263;DHT22;8239;48.594;8.598;2023-12-29T13:04:46;13.70;67.70
16263;DHT22;8239;48.594;8.598;2023-12-29T13:07:16;13.70;69.30
16263;DHT22;8239;48.594;8.598;2023-12-29T13:09:44;13.80;70.50
16263;DHT22;8239;48.594;8.598;2023-12-29T13:12:14;14.10;69.30
16263;DHT22;8239;48.594;8.598;2023-12-29T13:14:42;14.60;67.80
16263;DHT22;8239;48.594;8.598;2023-12-29T13:17:10;14.70;67.10
16263;DHT22;8239;48.594;8.598;2023-12-29T13:19:41;14.40;67.00
16263;DHT22;8239;48.594;8.598;2023-12-29T13:22:10;13.90;67.90
16263;DHT22;8239;48.594;8.598;2023-12-29T13:24:43;13.50;69.60
16263;DHT22;8239;48.594;8.598;2023-12-29T13:27:11;12.90;70.00
16263;DHT22;8239;48.594;8.598;2023-12-29T13:29:39;12.60;71.00
16263;DHT22;8239;48.594;8.598;2023-12-29T13:32:10;12.30;72.30
16263;DHT22;8239;48.594;8.598;2023-12-29T13:34:44;12.00;73.20
16263;DHT22;8239;48.594;8.598;2023-12-29T13:37:18;11.80;74.40
16263;DHT22;8239;48.594;8.598;2023-12-29T13:39:53;11.70;75.70
16263;DHT22;8239;48.594;8.598;2023-12-29T13:42:23;11.60;76.20
16263;DHT22;8239;48.594;8.598;2023-12-29T13:44:54;11.50;76.40
16263;DHT22;8239;48.594;8.598;2023-12-29T13:47:22;11.50;77.30
16263;DHT22;8239;48.594;8.598;2023-12-29T13:49:51;11.50;77.60
16263;DHT22;8239;48.594;8.598;2023-12-29T13:52:19;11.70;77.40
16263;DHT22;8239;48.594;8.598;2023-12-29T13:54:46;11.80;76.40
16263;DHT22;8239;48.594;8.598;2023-12-29T13:57:14;12.00;76.70
16263;DHT22;8239;48.594;8.598;2023-12-29T13:59:41;12.50;75.70
16263;DHT22;8239;48.594;8.598;2023-12-29T14:02:26;12.80;73.20
16263;DHT22;8239;48.594;8.598;2023-12-29T14:05:15;13.40;72.20
16263;DHT22;8239;48.594;8.598;2023-12-29T14:07:47;13.60;69.30
16263;DHT22;8239;48.594;8.598;2023-12-29T14:10:15;12.90;70.40
16263;DHT22;8239;48.594;8.598;2023-12-29T14:12:43;12.20;71.70
16263;DHT22;8239;48.594;8.598;2023-12-29T14:15:12;11.70;73.70
16263;DHT22;8239;48.594;8.598;2023-12-29T14:17:40;11.30;75.40
16263;DHT22;8239;48.594;8.598;2023-12-29T14:20:08;11.30;76.70
16263;DHT22;8239;48.594;8.598;2023-12-29T14:22:36;11.60;76.10
16263;DHT22;8239;48.594;8.598;2023-12-29T14:25:05;11.90;75.20
16263;DHT22;8239;48.594;8.598;2023-12-29T14:27:33;12.30;74.70
16263;DHT22;8239;48.594;8.598;2023-12-29T14:30:00;13.20;72.60
16263;DHT22;8239;48.594;8.598;2023-12-29T14:32:27;13.80;70.30
16263;DHT22;8239;48.594;8.598;2023-12-29T14:34:56;14.40;69.10
16263;DHT22;8239;48.594;8.598;2023-12-29T14:37:23;14.60;68.40
16263;DHT22;8239;48.594;8.598;2023-12-29T14:39:52;14.80;67.10
16263;DHT22;8239;48.594;8.598;2023-12-29T14:42:20;14.20;63.70
16263;DHT22;8239;48.594;8.598;2023-12-29T14:44:47;13.50;66.20
16263;DHT22;8239;48.594;8.598;2023-12-29T14:47:15;12.80;67.30
16263;DHT22;8239;48.594;8.598;2023-12-29T14:49:43;12.30;69.40
16263;DHT22;8239;48.594;8.598;2023-12-29T14:52:11;12.00;71.30
16263;DHT22;8239;48.594;8.598;2023-12-29T14:54:38;11.70;71.60
16263;DHT22;8239;48.594;8.598;2023-12-29T14:57:08;11.60;71.10
16263;DHT22;8239;48.594;8.598;2023-12-29T14:59:35;11.40;71.10
16263;DHT22;8239;48.594;8.598;2023-12-29T15:02:04;11.20;71.60
16263;DHT22;8239;48.594;8.598;2023-12-29T15:04:33;10.90;71.90
16263;DHT22;8239;48.594;8.598;2023-12-29T15:07:00;10.50;73.00
16263;DHT22;8239;48.594;8.598;2023-12-29T15:09:28;10.20;73.10
16263;DHT22;8239;48.594;8.598;2023-12-29T15:11:55;9.90;75.30
16263;DHT22;8239;48.594;8.598;2023-12-29T15:14:24;9.70;76.30
16263;DHT22;8239;48.594;8.598;2023-12-29T15:16:51;9.40;76.80
16263;DHT22;8239;48.594;8.598;2023-12-29T15:19:18;9.20;77.10
16263;DHT22;8239;48.594;8.598;2023-12-29T15:21:46;9.00;78.10
16263;DHT22;8239;48.594;8.598;2023-12-29T15:24:18;8.80;78.90
16263;DHT22;8239;48.594;8.598;2023-12-29T15:26:45;8.60;79.40
16263;DHT22;8239;48.594;8.598;2023-12-29T15:29:14;8.40;79.80
16263;DHT22;8239;48.594;8.598;2023-12-29T15:31:43;8.30;80.60
16263;DHT22;8239;48.594;8.598;2023-12-29T15:34:11;8.10;81.50
16263;DHT22;8239;48.594;8.598;2023-12-29T15:36:38;8.00;82.00
16263;DHT22;8239;48.594;8.598;2023-12-29T15:39:05;7.80;82.50
16263;DHT22;8239;48.594;8.598;2023-12-29T15:41:32;7.70;83.90
16263;DHT22;8239;48.594;8.598;2023-12-29T15:43:59;7.60;84.10
16263;DHT22;8239;48.594;8.598;2023-12-29T15:46:29;7.50;84.60
16263;DHT22;8239;48.594;8.598;2023-12-29T15:48:57;7.50;85.10
16263;DHT22;8239;48.594;8.598;2023-12-29T15:51:27;7.40;86.20
16263;DHT22;8239;48.594;8.598;2023-12-29T15:53:55;7.20;87.20
16263;DHT22;8239;48.594;8.598;2023-12-29T15:56:22;7.20;88.10
16263;DHT22;8239;48.594;8.598;2023-12-29T15:58:49;7.10;88.70
16263;DHT22;8239;48.594;8.598;2023-12-29T16:01:22;7.00;90.00
16263;DHT22;8239;48.594;8.598;2023-12-29T16:03:52;6.90;90.30
16263;DHT22;8239;48.594;8.598;2023-12-29T16:06:21;6.80;91.10